createdAt,value
2023-02-06T00:00:45.456Z,4.55
2023-02-06T00:03:12.488Z,4.03
2023-02-06T00:05:39.695Z,4.75
2023-02-06T00:08:07.178Z,5.40
2023-02-06T00:10:34.744Z,3.97
2023-02-06T00:13:02.015Z,4.00
2023-02-06T00:15:31.291Z,3.63
2023-02-06T00:17:58.484Z,4.32
2023-02-06T00:20:25.482Z,4.53
2023-02-06T00:22:52.549Z,3.55
2023-02-06T00:25:19.553Z,4.07
2023-02-06T00:27:46.594Z,4.10
2023-02-06T00:30:13.826Z,3.83
2023-02-06T00:32:40.832Z,3.78
2023-02-06T00:35:08.014Z,3.55
2023-02-06T00:37:35.069Z,3.85
2023-02-06T00:40:02.065Z,3.75
2023-02-06T00:42:29.078Z,3.72
2023-02-06T00:44:56.132Z,3.42
2023-02-06T00:47:23.237Z,3.55
2023-02-06T00:49:50.252Z,3.22
2023-02-06T00:52:17.286Z,4.60
2023-02-06T00:54:44.296Z,3.50
2023-02-06T00:57:11.310Z,3.40
2023-02-06T00:59:38.307Z,4.10
2023-02-06T01:02:05.321Z,3.53
2023-02-06T01:04:32.360Z,3.67
2023-02-06T01:06:59.410Z,3.45
2023-02-06T01:09:26.492Z,3.20
2023-02-06T01:11:53.548Z,3.70
2023-02-06T01:14:20.572Z,3.72
2023-02-06T01:16:47.604Z,3.90
2023-02-06T01:19:14.659Z,3.75
2023-02-06T01:21:41.642Z,4.32
2023-02-06T01:24:08.655Z,4.20
2023-02-06T01:26:35.757Z,3.55
2023-02-06T01:29:03.150Z,4.10
2023-02-06T01:31:31.119Z,3.65
2023-02-06T01:33:58.872Z,3.60
2023-02-06T01:36:26.337Z,3.85
2023-02-06T01:38:53.563Z,3.35
2023-02-06T01:41:22.248Z,4.13
2023-02-06T01:44:07.984Z,4.18
2023-02-06T01:46:35.056Z,3.80
2023-02-06T01:49:02.458Z,3.55
2023-02-06T01:51:30.142Z,3.92
2023-02-06T01:54:04.845Z,3.20
2023-02-06T01:56:33.709Z,3.13
2023-02-06T01:59:02.979Z,3.70
2023-02-06T02:01:30.748Z,3.97
2023-02-06T02:04:01.641Z,4.10
2023-02-06T02:06:28.924Z,3.67
2023-02-06T02:08:58.422Z,4.20
2023-02-06T02:11:30.956Z,4.35
2023-02-06T02:13:57.987Z,4.07
2023-02-06T02:16:34.014Z,3.63
2023-02-06T02:19:20.018Z,3.45
2023-02-06T02:21:50.040Z,3.72
2023-02-06T02:24:25.871Z,3.67
2023-02-06T02:27:04.889Z,3.72
2023-02-06T02:29:44.178Z,3.88
2023-02-06T02:32:23.742Z,4.20
2023-02-06T02:34:50.739Z,4.03
2023-02-06T02:37:17.794Z,4.30
2023-02-06T02:39:47.136Z,3.65
2023-02-06T02:42:19.732Z,3.53
2023-02-06T02:45:16.316Z,4.70
2023-02-06T02:48:02.191Z,3.80
2023-02-06T02:50:29.217Z,4.15
2023-02-06T02:52:56.240Z,3.90
2023-02-06T02:55:24.252Z,4.40
2023-02-06T02:57:53.954Z,3.63
2023-02-06T03:00:22.257Z,3.97
2023-02-06T03:02:50.553Z,5.15
2023-02-06T03:05:20.190Z,4.13
2023-02-06T03:07:55.623Z,4.18
2023-02-06T03:10:42.919Z,4.95
2023-02-06T03:13:26.372Z,4.40
2023-02-06T03:16:13.695Z,5.15
2023-02-06T03:19:07.099Z,5.10
2023-02-06T03:21:36.142Z,4.43
2023-02-06T03:24:04.650Z,3.55
2023-02-06T03:26:32.275Z,3.92
2023-02-06T03:29:04.922Z,3.30
2023-02-06T03:31:37.187Z,3.60
2023-02-06T03:34:07.262Z,4.35
2023-02-06T03:36:34.405Z,2.80
2023-02-06T03:39:01.496Z,3.58
2023-02-06T03:41:30.430Z,3.28
2023-02-06T03:43:57.737Z,3.63
2023-02-06T03:46:26.391Z,3.40
2023-02-06T03:48:55.261Z,3.47
2023-02-06T03:51:26.183Z,3.25
2023-02-06T03:53:54.119Z,3.85
2023-02-06T03:56:25.715Z,3.60
2023-02-06T03:58:52.791Z,3.30
2023-02-06T04:01:20.192Z,3.58
2023-02-06T04:03:47.268Z,3.85
2023-02-06T04:06:14.357Z,3.50
2023-02-06T04:08:41.377Z,3.80
2023-02-06T04:11:08.492Z,3.80
2023-02-06T04:13:35.582Z,4.40
2023-02-06T04:16:04.668Z,3.75
2023-02-06T04:18:31.817Z,3.58
2023-02-06T04:21:04.115Z,3.30
2023-02-06T04:23:31.184Z,3.63
2023-02-06T04:25:58.227Z,4.15
2023-02-06T04:28:25.236Z,4.70
2023-02-06T04:30:52.334Z,4.15
2023-02-06T04:33:19.401Z,3.90
2023-02-06T04:35:47.436Z,3.83
2023-02-06T04:38:14.484Z,4.88
2023-02-06T04:40:41.490Z,4.38
2023-02-06T04:43:08.548Z,3.88
2023-02-06T04:45:35.951Z,3.85
2023-02-06T04:48:03.125Z,4.32
2023-02-06T04:50:31.744Z,4.35
2023-02-06T04:52:58.871Z,4.60
2023-02-06T04:55:25.939Z,5.03
2023-02-06T04:57:52.953Z,4.07
2023-02-06T05:00:20.071Z,4.35
2023-02-06T05:02:47.092Z,3.90
2023-02-06T05:05:14.272Z,5.43
2023-02-06T05:07:41.291Z,4.22
2023-02-06T05:10:09.301Z,4.50
2023-02-06T05:12:36.460Z,3.95
2023-02-06T05:15:05.664Z,3.63
2023-02-06T05:17:32.757Z,12.75
2023-02-06T05:19:59.821Z,6.25
2023-02-06T05:22:26.988Z,4.70
2023-02-06T05:24:54.181Z,3.85
2023-02-06T05:27:22.328Z,4.13
2023-02-06T05:29:49.348Z,4.30
2023-02-06T05:32:18.167Z,5.13
2023-02-06T05:34:45.720Z,4.82
2023-02-06T05:37:13.023Z,4.60
2023-02-06T05:39:40.026Z,4.32
2023-02-06T05:42:07.035Z,4.30
2023-02-06T05:44:34.076Z,3.20
2023-02-06T05:47:01.096Z,3.35
2023-02-06T05:49:28.128Z,4.00
2023-02-06T05:51:55.155Z,2.95
2023-02-06T05:54:22.158Z,3.45
2023-02-06T05:56:49.218Z,4.28
2023-02-06T05:59:20.548Z,3.53
2023-02-06T06:01:47.546Z,4.22
2023-02-06T06:04:14.665Z,3.50
2023-02-06T06:06:41.959Z,3.15
2023-02-06T06:09:09.222Z,3.65
2023-02-06T06:11:36.379Z,4.47
2023-02-06T06:14:03.384Z,3.40
2023-02-06T06:16:30.578Z,3.72
2023-02-06T06:18:57.574Z,4.18
2023-02-06T06:21:24.842Z,4.50
2023-02-06T06:23:51.954Z,4.43
2023-02-06T06:26:18.974Z,4.72
2023-02-06T06:28:49.260Z,5.28
2023-02-06T06:31:16.407Z,4.20
2023-02-06T06:33:43.497Z,4.75
2023-02-06T06:36:12.879Z,6.15
2023-02-06T06:38:41.436Z,5.30
2023-02-06T06:41:08.487Z,4.78
2023-02-06T06:43:35.760Z,5.40
2023-02-06T06:46:04.621Z,4.75
2023-02-06T06:48:31.988Z,5.60
2023-02-06T06:50:59.070Z,5.88
2023-02-06T06:53:26.133Z,4.68
2023-02-06T06:55:54.422Z,4.70
2023-02-06T06:58:21.435Z,6.07
2023-02-06T07:00:48.480Z,6.32
2023-02-06T07:03:15.694Z,10.73
2023-02-06T07:05:42.723Z,6.63
2023-02-06T07:08:09.740Z,6.38
2023-02-06T07:10:36.752Z,6.32
2023-02-06T07:13:03.836Z,6.60
2023-02-06T07:15:30.906Z,5.88
2023-02-06T07:17:57.919Z,5.43
2023-02-06T07:20:24.981Z,5.47
2023-02-06T07:22:53.484Z,5.03
2023-02-06T07:25:20.668Z,4.90
2023-02-06T07:27:48.171Z,5.50
2023-02-06T07:30:15.652Z,4.78
2023-02-06T07:32:42.797Z,4.40
2023-02-06T07:35:11.028Z,4.22
2023-02-06T07:37:38.028Z,4.75
2023-02-06T07:40:05.582Z,5.80
2023-02-06T07:42:33.655Z,5.93
2023-02-06T07:45:01.111Z,7.45
2023-02-06T07:47:28.200Z,6.32
2023-02-06T07:49:55.324Z,5.20
2023-02-06T07:52:22.522Z,4.82
2023-02-06T07:54:49.515Z,4.75
2023-02-06T07:57:17.731Z,5.05
2023-02-06T07:59:44.804Z,5.20
2023-02-06T08:02:12.271Z,5.20
2023-02-06T08:04:39.731Z,5.75
2023-02-06T08:07:09.749Z,6.03
2023-02-06T08:09:37.909Z,5.35
2023-02-06T08:12:05.012Z,4.95
2023-02-06T08:14:32.584Z,4.15
2023-02-06T08:16:59.729Z,4.93
2023-02-06T08:19:26.773Z,5.60
2023-02-06T08:21:53.836Z,4.90
2023-02-06T08:24:24.085Z,6.00
2023-02-06T08:26:51.204Z,5.45
2023-02-06T08:29:18.333Z,6.60
2023-02-06T08:31:45.642Z,6.18
2023-02-06T08:34:13.785Z,5.68
2023-02-06T08:36:43.182Z,7.20
2023-02-06T08:39:12.941Z,5.68
2023-02-06T08:41:40.768Z,6.53
2023-02-06T08:44:11.614Z,7.72
2023-02-06T08:46:39.179Z,6.30
2023-02-06T08:49:07.744Z,7.78
2023-02-06T08:51:36.720Z,8.10
2023-02-06T08:54:05.342Z,7.70
2023-02-06T08:56:33.296Z,7.00
2023-02-06T08:59:00.971Z,7.53
2023-02-06T09:01:29.204Z,7.55
2023-02-06T09:03:57.506Z,7.97
2023-02-06T09:06:25.488Z,7.35
2023-02-06T09:08:53.119Z,7.13
2023-02-06T09:11:22.538Z,7.53
2023-02-06T09:13:50.319Z,7.50
2023-02-06T09:16:18.436Z,7.40
2023-02-06T09:18:45.583Z,7.85
2023-02-06T09:21:14.201Z,7.20
2023-02-06T09:23:43.716Z,5.70
2023-02-06T09:26:11.385Z,6.38
2023-02-06T09:28:38.615Z,5.88
2023-02-06T09:31:05.781Z,5.65
2023-02-06T09:33:32.891Z,7.28
2023-02-06T09:36:08.308Z,5.93
2023-02-06T09:38:35.861Z,5.20
2023-02-06T09:41:04.801Z,5.13
2023-02-06T09:43:32.441Z,4.83
2023-02-06T09:46:05.883Z,5.70
2023-02-06T09:48:38.471Z,5.60
2023-02-06T09:51:05.551Z,5.83
2023-02-06T09:53:32.582Z,4.67
2023-02-06T09:56:02.936Z,6.20
2023-02-06T09:58:45.120Z,6.13
2023-02-06T10:01:27.131Z,6.50
2023-02-06T10:03:54.176Z,5.40
2023-02-06T10:06:23.052Z,6.03
2023-02-06T10:09:05.864Z,5.40
2023-02-06T10:11:32.912Z,5.27
2023-02-06T10:14:05.769Z,5.03
2023-02-06T10:16:41.504Z,5.40
2023-02-06T10:19:17.521Z,4.97
2023-02-06T10:21:54.136Z,5.10
2023-02-06T10:24:34.492Z,5.20
2023-02-06T10:27:04.013Z,6.43
2023-02-06T10:29:32.453Z,5.28
2023-02-06T10:32:05.106Z,5.13
2023-02-06T10:34:35.077Z,5.90
2023-02-06T10:37:17.151Z,5.50
2023-02-06T10:40:03.008Z,6.27
2023-02-06T10:42:42.101Z,5.23
2023-02-06T10:45:20.235Z,5.40
2023-02-06T10:47:56.812Z,7.37
2023-02-06T10:50:42.773Z,4.87
2023-02-06T10:53:36.116Z,5.07
2023-02-06T10:56:11.045Z,9.17
2023-02-06T10:58:41.707Z,9.57
2023-02-06T11:01:24.706Z,7.00
2023-02-06T11:04:05.921Z,14.57
2023-02-06T11:06:33.164Z,7.20
2023-02-06T11:09:00.213Z,5.90
2023-02-06T11:11:29.778Z,4.90
2023-02-06T11:14:16.614Z,5.10
2023-02-06T11:16:44.724Z,5.20
2023-02-06T11:19:25.978Z,5.10
2023-02-06T11:21:55.218Z,5.40
2023-02-06T11:24:24.138Z,4.37
2023-02-06T11:27:11.450Z,5.50
2023-02-06T11:29:44.888Z,4.90
2023-02-06T11:32:26.084Z,5.67
2023-02-06T11:35:03.926Z,4.73
2023-02-06T11:37:35.912Z,5.03
2023-02-06T11:40:21.659Z,4.90
2023-02-06T11:42:52.566Z,4.87
2023-02-06T11:45:26.102Z,4.63
2023-02-06T11:47:53.271Z,5.00
2023-02-06T11:50:23.151Z,4.47
2023-02-06T11:52:55.726Z,4.60
2023-02-06T11:55:24.297Z,5.10
2023-02-06T11:58:06.648Z,6.00
2023-02-06T12:00:35.846Z,4.50
2023-02-06T12:03:03.325Z,5.20
2023-02-06T12:05:33.551Z,4.87
2023-02-06T12:08:05.966Z,4.80
2023-02-06T12:10:34.894Z,5.67
2023-02-06T12:13:13.227Z,6.30
2023-02-06T12:15:47.501Z,5.80
2023-02-06T12:18:17.970Z,7.10
2023-02-06T12:20:51.538Z,6.13
2023-02-06T12:23:18.593Z,5.50
2023-02-06T12:25:49.544Z,7.00
2023-02-06T12:28:22.784Z,6.70
2023-02-06T12:30:51.330Z,7.23
2023-02-06T12:33:22.125Z,5.30
2023-02-06T12:35:50.788Z,6.00
2023-02-06T12:38:26.909Z,6.37
2023-02-06T12:41:02.823Z,7.60
2023-02-06T12:43:30.792Z,7.23
2023-02-06T12:46:01.769Z,8.03
2023-02-06T12:48:40.611Z,7.37
2023-02-06T12:51:29.579Z,7.30
2023-02-06T12:54:02.293Z,7.00
2023-02-06T12:56:33.829Z,7.60
2023-02-06T12:59:01.168Z,6.73
2023-02-06T13:01:47.225Z,7.80
2023-02-06T13:04:17.428Z,7.40
2023-02-06T13:06:48.603Z,8.00
2023-02-06T13:09:21.635Z,7.17
2023-02-06T13:11:48.928Z,7.27
2023-02-06T13:14:16.710Z,8.00
2023-02-06T13:16:43.962Z,7.93
2023-02-06T13:19:21.208Z,7.20
2023-02-06T13:22:16.704Z,10.83
2023-02-06T13:24:45.297Z,7.40
2023-02-06T13:27:13.544Z,6.27
2023-02-06T13:29:42.442Z,6.37
2023-02-06T13:32:12.397Z,6.37
2023-02-06T13:34:43.709Z,6.97
2023-02-06T13:37:20.914Z,7.43
2023-02-06T13:39:48.893Z,8.90
2023-02-06T13:42:35.292Z,6.70
2023-02-06T13:45:03.926Z,6.90
2023-02-06T13:47:49.834Z,7.22
2023-02-06T13:50:35.851Z,6.43
2023-02-06T13:53:08.993Z,6.00
2023-02-06T13:55:59.157Z,5.80
2023-02-06T13:58:44.596Z,6.22
2023-02-06T14:01:17.868Z,7.05
2023-02-06T14:03:46.504Z,7.82
2023-02-06T14:06:16.433Z,7.30
2023-02-06T14:09:01.983Z,6.85
2023-02-06T14:12:05.344Z,7.72
2023-02-06T14:14:43.816Z,6.97
2023-02-06T14:17:31.098Z,5.22
2023-02-06T14:20:00.956Z,4.97
2023-02-06T14:22:37.635Z,4.43
2023-02-06T14:25:16.977Z,4.40
2023-02-06T14:28:02.934Z,4.33
2023-02-06T14:30:29.973Z,3.70
2023-02-06T14:33:17.446Z,4.90
2023-02-06T14:35:54.985Z,2.57
2023-02-06T14:38:22.007Z,1.80
2023-02-06T14:40:53.208Z,2.10
2023-02-06T14:43:22.213Z,1.83
2023-02-06T14:46:05.647Z,1.33
2023-02-06T14:48:39.288Z,1.92
2023-02-06T14:51:07.031Z,1.80
2023-02-06T14:53:38.015Z,1.83
2023-02-06T14:56:06.251Z,1.70
2023-02-06T14:58:33.269Z,1.50
2023-02-06T15:01:18.673Z,1.70
2023-02-06T15:03:46.416Z,1.58
2023-02-06T15:06:14.892Z,2.42
2023-02-06T15:08:51.948Z,2.03
2023-02-06T15:11:20.400Z,2.63
2023-02-06T15:13:52.002Z,2.40
2023-02-06T15:16:19.082Z,3.35
2023-02-06T15:18:46.150Z,2.50
2023-02-06T15:21:15.534Z,1.88
2023-02-06T15:23:45.540Z,2.10
2023-02-06T15:26:32.518Z,2.88
2023-02-06T15:29:00.666Z,2.28
2023-02-06T15:31:28.352Z,1.88
2023-02-06T15:33:57.354Z,1.92
2023-02-06T15:36:30.546Z,2.30
2023-02-06T15:38:58.435Z,2.00
2023-02-06T15:41:26.077Z,2.10
2023-02-06T15:43:54.198Z,3.83
2023-02-06T15:46:21.405Z,1.92
2023-02-06T15:48:51.521Z,1.80
2023-02-06T15:51:37.234Z,2.65
2023-02-06T15:54:20.050Z,1.98
2023-02-06T15:56:51.754Z,2.30
2023-02-06T15:59:24.078Z,4.20
2023-02-06T16:01:51.726Z,3.67
2023-02-06T16:04:24.172Z,2.00
2023-02-06T16:07:09.989Z,2.08
2023-02-06T16:09:41.447Z,2.50
2023-02-06T16:12:09.008Z,1.60
2023-02-06T16:14:38.013Z,1.60
2023-02-06T16:17:26.402Z,1.77
2023-02-06T16:20:02.442Z,4.40
2023-02-06T16:22:40.050Z,8.00
2023-02-06T16:25:25.890Z,3.40
2023-02-06T16:27:55.190Z,3.13
2023-02-06T16:30:33.597Z,2.35
2023-02-06T16:33:08.723Z,3.00
2023-02-06T16:35:35.760Z,3.50
2023-02-06T16:38:02.977Z,4.45
2023-02-06T16:40:30.283Z,3.92
2023-02-06T16:42:57.465Z,4.93
2023-02-06T16:45:26.371Z,3.00
2023-02-06T16:47:54.070Z,4.25
2023-02-06T16:50:21.708Z,20.65
2023-02-06T16:52:50.506Z,8.65
2023-02-06T16:55:23.291Z,9.82
2023-02-06T16:57:51.659Z,8.90
2023-02-06T17:00:18.778Z,8.95
2023-02-06T17:02:46.565Z,8.07
2023-02-06T17:05:14.508Z,9.23
2023-02-06T17:07:41.670Z,7.32
2023-02-06T17:10:09.008Z,6.15
2023-02-06T17:12:36.364Z,7.10
2023-02-06T17:15:03.571Z,4.32
2023-02-06T17:17:30.624Z,7.28
2023-02-06T17:19:57.821Z,6.97
2023-02-06T17:22:24.878Z,4.43
2023-02-06T17:24:51.926Z,3.42
2023-02-06T17:27:20.563Z,2.72
2023-02-06T17:29:47.960Z,3.22
2023-02-06T17:32:16.180Z,2.45
2023-02-06T17:34:43.311Z,3.60
2023-02-06T17:37:11.280Z,2.85
2023-02-06T17:39:38.287Z,2.80
2023-02-06T17:42:05.355Z,2.55
2023-02-06T17:44:32.392Z,5.22
2023-02-06T17:46:59.419Z,4.55
2023-02-06T17:49:26.476Z,3.55
2023-02-06T17:51:54.445Z,4.15
2023-02-06T17:54:21.465Z,4.20
2023-02-06T17:56:48.496Z,3.90
2023-02-06T17:59:15.642Z,4.20
2023-02-06T18:01:42.697Z,4.43
2023-02-06T18:04:13.893Z,3.50
2023-02-06T18:06:40.990Z,3.67
2023-02-06T18:09:08.041Z,4.18
2023-02-06T18:11:35.694Z,3.65
2023-02-06T18:14:02.760Z,4.75
2023-02-06T18:16:30.508Z,4.25
2023-02-06T18:18:57.986Z,3.53
2023-02-06T18:21:25.218Z,5.03
2023-02-06T18:23:54.370Z,4.25
2023-02-06T18:26:23.030Z,4.28
2023-02-06T18:28:51.226Z,4.55
2023-02-06T18:31:36.852Z,4.45
2023-02-06T18:34:07.862Z,4.13
2023-02-06T18:36:35.658Z,4.20
2023-02-06T18:39:02.849Z,4.22
2023-02-06T18:41:48.539Z,4.03
2023-02-06T18:44:15.598Z,4.32
2023-02-06T18:46:42.880Z,4.90
2023-02-06T18:49:11.076Z,6.32
2023-02-06T18:51:38.171Z,3.22
2023-02-06T18:54:07.650Z,3.65
2023-02-06T18:56:35.233Z,3.10
2023-02-06T18:59:03.876Z,3.10
2023-02-06T19:01:31.522Z,4.85
2023-02-06T19:03:58.987Z,4.93
2023-02-06T19:06:29.772Z,6.70
2023-02-06T19:08:57.226Z,4.45
2023-02-06T19:11:24.602Z,3.83
2023-02-06T19:13:51.741Z,24.48
2023-02-06T19:16:19.805Z,7.00
2023-02-06T19:18:48.524Z,6.30
2023-02-06T19:21:18.368Z,4.72
2023-02-06T19:23:46.226Z,6.32
2023-02-06T19:26:17.167Z,18.52
2023-02-06T19:28:44.913Z,8.93
2023-02-06T19:31:13.008Z,6.25
2023-02-06T19:33:41.119Z,6.57
2023-02-06T19:36:08.338Z,6.00
2023-02-06T19:38:35.609Z,5.30
2023-02-06T19:41:10.745Z,5.03
2023-02-06T19:43:38.040Z,5.60
2023-02-06T19:46:06.095Z,9.13
2023-02-06T19:48:33.209Z,13.90
2023-02-06T19:51:08.395Z,14.32
2023-02-06T19:53:36.220Z,10.90
2023-02-06T19:56:04.448Z,9.00
2023-02-06T19:58:32.016Z,5.50
2023-02-06T20:00:59.585Z,5.80
2023-02-06T20:03:26.813Z,5.63
2023-02-06T20:05:53.951Z,6.65
2023-02-06T20:08:21.162Z,7.25
2023-02-06T20:10:48.233Z,4.65
2023-02-06T20:13:15.317Z,5.85
2023-02-06T20:15:42.367Z,10.10
2023-02-06T20:18:09.493Z,9.85
2023-02-06T20:20:36.972Z,11.23
2023-02-06T20:23:04.242Z,13.38
2023-02-06T20:25:31.433Z,15.73
2023-02-06T20:27:58.577Z,19.98
2023-02-06T20:30:25.717Z,17.52
2023-02-06T20:32:52.848Z,22.52
2023-02-06T20:35:19.899Z,9.02
2023-02-06T20:37:46.930Z,6.57
2023-02-06T20:40:13.960Z,21.40
2023-02-06T20:42:44.420Z,18.70
2023-02-06T20:45:12.785Z,8.90
2023-02-06T20:47:40.147Z,8.77
2023-02-06T20:50:07.875Z,9.07
2023-02-06T20:52:35.342Z,7.95
2023-02-06T20:55:02.653Z,6.82
2023-02-06T20:57:30.582Z,6.60
2023-02-06T20:59:57.701Z,6.03
2023-02-06T21:02:25.742Z,6.35
2023-02-06T21:04:52.923Z,8.50
2023-02-06T21:07:20.642Z,8.75
2023-02-06T21:09:48.244Z,8.15
2023-02-06T21:12:15.700Z,7.05
2023-02-06T21:14:43.013Z,7.32
2023-02-06T21:17:10.389Z,5.15
2023-02-06T21:19:37.528Z,6.15
2023-02-06T21:22:04.562Z,5.47
2023-02-06T21:24:31.613Z,6.03
2023-02-06T21:26:58.653Z,7.20
2023-02-06T21:29:25.769Z,5.95
2023-02-06T21:32:07.254Z,6.68
2023-02-06T21:34:39.488Z,7.82
2023-02-06T21:37:06.514Z,6.30
2023-02-06T21:39:33.972Z,5.85
2023-02-06T21:42:01.597Z,6.63
2023-02-06T21:44:28.909Z,6.47
2023-02-06T21:46:56.067Z,7.25
2023-02-06T21:49:23.667Z,7.00
2023-02-06T21:51:51.407Z,6.72
2023-02-06T21:54:18.449Z,6.97
2023-02-06T21:56:45.706Z,6.65
2023-02-06T21:59:13.215Z,7.50
2023-02-06T22:01:41.204Z,7.10
2023-02-06T22:04:09.142Z,6.90
2023-02-06T22:06:37.026Z,8.15
2023-02-06T22:09:07.560Z,7.43
2023-02-06T22:11:38.464Z,7.93
2023-02-06T22:14:06.981Z,7.78
2023-02-06T22:16:34.096Z,7.70
2023-02-06T22:19:01.321Z,6.28
2023-02-06T22:21:29.274Z,6.70
2023-02-06T22:23:57.683Z,7.28
2023-02-06T22:26:25.301Z,7.10
2023-02-06T22:28:52.403Z,6.93
2023-02-06T22:31:20.960Z,8.35
2023-02-06T22:33:48.329Z,9.88
2023-02-06T22:36:16.699Z,8.32
2023-02-06T22:38:44.546Z,10.73
2023-02-06T22:41:13.249Z,9.35
2023-02-06T22:43:40.508Z,9.00
2023-02-06T22:46:07.764Z,8.65
2023-02-06T22:48:35.130Z,8.10
2023-02-06T22:51:08.945Z,8.02
2023-02-06T22:53:37.336Z,7.43
2023-02-06T22:56:28.053Z,6.95
2023-02-06T22:58:55.962Z,6.65
2023-02-06T23:01:24.006Z,9.23
2023-02-06T23:03:54.892Z,8.38
2023-02-06T23:06:22.001Z,9.07
2023-02-06T23:08:49.063Z,11.00
2023-02-06T23:11:16.774Z,11.95
2023-02-06T23:13:43.907Z,10.57
2023-02-06T23:16:11.170Z,7.97
2023-02-06T23:18:38.241Z,8.45
2023-02-06T23:21:07.542Z,8.10
2023-02-06T23:23:34.710Z,9.32
2023-02-06T23:26:01.712Z,8.63
2023-02-06T23:28:29.205Z,8.55
2023-02-06T23:30:56.313Z,7.95
2023-02-06T23:33:23.576Z,9.63
2023-02-06T23:35:50.764Z,9.38
2023-02-06T23:38:18.039Z,10.02
2023-02-06T23:40:45.108Z,7.05
2023-02-06T23:43:12.130Z,9.40
2023-02-06T23:45:41.374Z,7.63
2023-02-06T23:48:08.599Z,8.35
2023-02-06T23:50:35.875Z,9.00
2023-02-06T23:53:03.008Z,7.70
2023-02-06T23:55:30.576Z,8.20
2023-02-06T23:57:57.661Z,7.93
